Time;durP1;ratioP1;P1;durP2;ratioP2;P2;SDS_P1;SDS_P2;PMS_P1;PMS_P2;Temp;Humidity;BMP_temperature;BMP_pressure;BME280_temperature;BME280_humidity;BME280_pressure;Samples;Min_cycle;Max_cycle;Signal;HPM_P1;HPM_P2
2021/05/13 00:00:54;;;;;;;;;2.00;2.00;;;;;21.30;27.12;99089.41;4977967;28;8830;-44
2021/05/13 00:03:19;;;;;;;;;2.00;2.00;;;;;21.30;27.16;99088.59;4984903;28;8812;-42
2021/05/13 00:05:45;;;;;;;;;2.00;2.00;;;;;21.50;27.31;99090.31;4996532;28;8902;-43
2021/05/13 00:08:10;;;;;;;;;1.00;1.00;;;;;21.75;26.85;99084.63;4999446;28;8824;-43
2021/05/13 00:10:35;;;;;;;;;1.25;1.25;;;;;21.47;27.18;99087.50;4996209;28;8776;-43
2021/05/13 00:13:03;;;;;;;;;1.00;1.00;;;;;21.33;27.25;99085.16;4997843;28;8800;-43
2021/05/13 00:15:35;;;;;;;;;1.00;1.00;;;;;21.29;27.26;99090.56;4992463;28;8830;-43
2021/05/13 00:18:00;;;;;;;;;1.00;1.00;;;;;21.26;27.13;99091.25;4999422;28;9537;-43
2021/05/13 00:20:33;;;;;;;;;1.00;1.00;;;;;21.25;27.21;99086.94;4995285;28;8818;-43
2021/05/13 00:22:58;;;;;;;;;1.20;1.20;;;;;21.24;27.43;99092.75;4978275;28;8841;-43
2021/05/13 00:25:25;;;;;;;;;2.00;2.00;;;;;21.24;27.28;99087.28;4991451;28;8938;-43
2021/05/13 00:27:50;;;;;;;;;1.00;1.00;;;;;21.22;27.29;99089.59;4981888;28;8791;-43
2021/05/13 00:30:17;;;;;;;;;2.00;2.00;;;;;21.21;27.37;99079.75;4985035;28;8808;-43
2021/05/13 00:32:43;;;;;;;;;1.20;1.20;;;;;21.20;27.54;99081.69;4995180;28;9536;-43
2021/05/13 00:35:11;;;;;;;;;1.20;1.20;;;;;21.20;27.42;99089.94;4999066;28;8780;-43
2021/05/13 00:37:37;;;;;;;;;1.80;1.80;;;;;21.18;27.44;99082.06;4997838;28;8784;-42
2021/05/13 00:40:04;;;;;;;;;2.25;2.00;;;;;21.60;27.12;99083.50;4998034;28;8803;-42
2021/05/13 00:42:29;;;;;;;;;1.00;1.00;;;;;21.51;27.26;99091.09;4987299;28;8956;-43
2021/05/13 00:44:55;;;;;;;;;1.25;1.25;;;;;21.29;27.45;99081.53;4976470;28;9348;-43
2021/05/13 00:47:23;;;;;;;;;1.00;1.00;;;;;21.21;27.51;99085.22;4997691;28;9542;-44
2021/05/13 00:49:49;;;;;;;;;1.00;1.00;;;;;21.17;27.56;99080.44;4973625;28;8801;-43
2021/05/13 00:52:18;;;;;;;;;2.00;2.00;;;;;21.17;27.63;99083.19;4972283;28;8808;-42
2021/05/13 00:54:45;;;;;;;;;2.00;2.00;;;;;21.15;27.65;99077.25;4974277;28;8771;-43
2021/05/13 00:57:12;;;;;;;;;2.00;2.00;;;;;21.14;27.59;99075.69;4974255;28;8775;-43
2021/05/13 00:59:39;;;;;;;;;1.00;1.00;;;;;21.14;27.64;99077.63;4976365;28;8809;-43
2021/05/13 01:02:05;;;;;;;;;2.00;2.00;;;;;21.12;27.53;99080.72;4977678;28;8977;-43
2021/05/13 01:04:30;;;;;;;;;1.60;1.60;;;;;21.12;27.75;99074.44;4973961;28;8921;-43
2021/05/13 01:06:56;;;;;;;;;1.75;1.75;;;;;21.12;27.74;99075.22;4987920;28;8834;-43
2021/05/13 01:09:26;;;;;;;;;1.00;1.00;;;;;21.11;27.70;99081.88;4983747;28;8831;-43
2021/05/13 01:11:55;;;;;;;;;1.60;1.60;;;;;21.33;27.44;99085.16;4980278;28;8807;-43
2021/05/13 01:14:26;;;;;;;;;1.40;1.40;;;;;21.55;27.43;99081.03;4994295;28;9153;-43
2021/05/13 01:19:25;;;;;;;;;1.00;1.00;;;;;21.14;27.66;99081.16;5000027;28;8785;-42
2021/05/13 01:21:50;;;;;;;;;1.25;1.25;;;;;21.11;27.70;99075.59;4983867;28;9341;-43
2021/05/13 01:24:16;;;;;;;;;2.00;2.00;;;;;21.08;27.75;99073.56;4983225;28;8974;-43
2021/05/13 01:26:43;;;;;;;;;1.00;1.00;;;;;21.07;27.91;99067.28;4994027;28;8815;-43
2021/05/13 01:29:10;;;;;;;;;1.00;1.00;;;;;21.01;27.73;99071.41;4973010;28;9835;-44
2021/05/13 01:31:36;;;;;;;;;1.60;1.60;;;;;21.04;27.73;99078.94;4991553;28;8910;-43
2021/05/13 01:34:04;;;;;;;;;1.00;1.00;;;;;21.04;27.84;99081.69;4993573;28;8812;-43
2021/05/13 01:36:29;;;;;;;;;1.00;1.00;;;;;21.03;27.91;99080.09;4986488;28;8791;-44
2021/05/13 01:38:57;;;;;;;;;2.00;2.00;;;;;21.03;27.90;99082.03;4973156;28;8859;-43
2021/05/13 01:41:22;;;;;;;;;1.00;1.00;;;;;21.02;27.99;99086.72;4976202;28;8787;-43
2021/05/13 01:43:48;;;;;;;;;1.00;1.00;;;;;21.02;27.79;99092.22;4995186;28;8816;-43
2021/05/13 01:46:13;;;;;;;;;1.25;1.25;;;;;21.46;27.46;99094.09;4976137;28;8807;-43
2021/05/13 01:48:38;;;;;;;;;1.00;1.00;;;;;21.30;27.70;99083.09;4975020;28;8791;-43
2021/05/13 01:51:04;;;;;;;;;2.00;2.00;;;;;21.11;27.74;99087.34;4979966;28;8798;-43
2021/05/13 01:53:29;;;;;;;;;1.75;1.75;;;;;21.04;27.91;99094.59;4996189;28;9557;-43
2021/05/13 01:55:54;;;;;;;;;2.00;2.00;;;;;21.01;27.81;99089.81;4997605;28;8804;-43
2021/05/13 01:58:20;;;;;;;;;1.50;1.50;;;;;20.98;28.00;99094.88;4991515;28;8843;-43
2021/05/13 02:00:45;;;;;;;;;1.00;1.00;;;;;20.98;27.94;99094.03;4984275;28;8925;-43
2021/05/13 02:03:12;;;;;;;;;1.00;1.00;;;;;20.96;28.04;99094.38;4972310;28;8799;-43
2021/05/13 02:05:38;;;;;;;;;1.80;1.80;;;;;20.96;27.93;99099.88;4975649;28;10680;-43
2021/05/13 02:08:04;;;;;;;;;1.00;1.00;;;;;20.84;28.04;99077.22;4973130;28;8815;-43
2021/05/13 02:10:29;;;;;;;;;1.00;1.00;;;;;20.93;27.98;99094.31;4993266;28;9558;-43
2021/05/13 02:12:56;;;;;;;;;2.00;2.00;;;;;20.94;28.05;99095.91;4992720;28;8882;-43
2021/05/13 02:15:23;;;;;;;;;1.40;1.40;;;;;20.95;28.00;99098.31;4982668;28;8811;-43
2021/05/13 02:17:49;;;;;;;;;1.00;1.00;;;;;21.17;28.13;99099.66;4972130;28;8824;-43
2021/05/13 02:20:17;;;;;;;;;1.00;1.00;;;;;21.37;27.59;99097.00;4976588;28;8809;-43
2021/05/13 02:22:42;;;;;;;;;1.00;1.00;;;;;21.01;27.79;99087.88;4992062;28;8802;-43
2021/05/13 02:25:09;;;;;;;;;2.00;2.00;;;;;20.98;28.03;99103.09;4994988;28;8819;-43
2021/05/13 02:27:35;;;;;;;;;1.60;1.60;;;;;20.95;28.01;99111.22;4992721;28;8772;-43
2021/05/13 02:30:02;;;;;;;;;1.25;1.00;;;;;20.93;28.11;99106.09;4995511;28;8882;-43
2021/05/13 02:32:28;;;;;;;;;1.00;1.00;;;;;20.92;28.28;99103.69;4989604;28;11073;-43
2021/05/13 02:34:53;;;;;;;;;1.00;1.00;;;;;20.91;27.99;99102.09;4977330;28;8795;-43
2021/05/13 02:37:22;;;;;;;;;1.50;1.50;;;;;20.91;28.13;99115.78;4976821;28;8799;-43
2021/05/13 02:39:48;;;;;;;;;2.00;2.00;;;;;20.89;28.20;99109.88;4973187;28;8790;-43
2021/05/13 02:42:13;;;;;;;;;2.00;2.00;;;;;20.89;28.28;99107.13;4975623;28;9058;-44
2021/05/13 02:44:38;;;;;;;;;2.00;2.00;;;;;20.87;28.15;99112.94;4971730;28;8815;-43
2021/05/13 02:47:04;;;;;;;;;2.00;1.50;;;;;20.86;28.21;99108.63;4976678;28;8858;-43
2021/05/13 02:49:29;;;;;;;;;1.00;1.00;;;;;20.69;29.18;99106.97;4990657;28;9525;-43
2021/05/13 02:51:55;;;;;;;;;1.00;1.00;;;;;21.16;28.81;99103.56;4999224;28;8801;-43
2021/05/13 02:54:21;;;;;;;;;1.00;1.00;;;;;21.15;28.37;99106.66;4990406;28;8802;-43
2021/05/13 02:56:46;;;;;;;;;1.40;1.40;;;;;20.94;28.41;99107.66;4976640;28;9718;-43
2021/05/13 02:59:13;;;;;;;;;1.00;1.00;;;;;20.86;28.55;99105.88;4980498;28;9629;-43
2021/05/13 03:01:38;;;;;;;;;1.00;1.00;;;;;20.83;28.59;99111.28;4994783;28;8801;-43
2021/05/13 03:04:04;;;;;;;;;1.00;1.00;;;;;20.81;28.54;99103.41;5000574;28;8846;-43
2021/05/13 03:06:29;;;;;;;;;1.00;1.00;;;;;20.78;28.51;99107.63;4988132;28;8791;-43
2021/05/13 03:08:56;;;;;;;;;1.60;1.60;;;;;20.76;28.62;99101.69;4982790;28;9543;-42
2021/05/13 03:11:23;;;;;;;;;1.00;1.00;;;;;20.35;28.35;99039.84;4992674;28;8942;-42
2021/05/13 03:13:52;;;;;;;;;1.60;1.60;;;;;20.76;28.40;99096.22;4996998;28;8993;-44
2021/05/13 03:16:17;;;;;;;;;2.00;2.00;;;;;20.74;28.57;99094.97;4996256;28;8810;-43
2021/05/13 03:18:46;;;;;;;;;1.00;1.00;;;;;20.72;28.58;99095.31;4997095;28;8796;-43
2021/05/13 03:21:36;;;;;;;;;2.00;2.00;;;;;20.72;28.63;99095.31;4996393;28;9536;-43
2021/05/13 03:29:16;;;;;;;;;2.00;2.00;;;;;20.39;28.30;99038.81;4989487;28;8857;-43
2021/05/13 03:31:41;;;;;;;;;1.00;1.00;;;;;20.57;28.63;99076.84;4971966;28;8937;-43
2021/05/13 03:34:07;;;;;;;;;1.00;1.00;;;;;20.28;28.70;99043.19;4985246;28;8798;-43
2021/05/13 03:36:33;;;;;;;;;1.00;1.00;;;;;20.67;28.41;99092.03;4982929;28;8883;-42
2021/05/13 03:39:05;;;;;;;;;2.00;2.00;;;;;20.64;28.61;99104.50;4983355;28;8807;-42
2021/05/13 03:41:32;;;;;;;;;2.00;2.00;;;;;20.64;28.65;99099.00;4993821;28;8800;-43
2021/05/13 03:43:57;;;;;;;;;1.60;1.60;;;;;20.61;28.55;99095.03;4992609;28;8792;-43
2021/05/13 03:46:22;;;;;;;;;1.00;1.00;;;;;20.60;28.61;99101.63;4990367;28;8808;-43
2021/05/13 03:48:48;;;;;;;;;1.00;1.00;;;;;20.59;28.63;99096.47;4995259;28;8788;-43
2021/05/13 03:51:13;;;;;;;;;1.00;1.00;;;;;20.45;28.59;99074.97;4990966;28;8870;-43
2021/05/13 03:53:39;;;;;;;;;1.00;1.00;;;;;20.57;28.59;99093.31;4997805;28;8827;-42
2021/05/13 03:56:05;;;;;;;;;1.60;1.60;;;;;20.65;28.87;99091.56;4996966;28;8870;-43
2021/05/13 03:58:35;;;;;;;;;1.00;1.00;;;;;20.94;28.51;99091.22;4994431;28;8811;-43
2021/05/13 04:01:09;;;;;;;;;2.00;2.00;;;;;20.76;28.56;99090.72;4993852;28;10063;-43
2021/05/13 04:03:35;;;;;;;;;2.00;2.00;;;;;20.60;28.61;99089.88;4996516;28;8776;-43
2021/05/13 04:06:00;;;;;;;;;2.00;2.00;;;;;20.57;28.70;99085.06;4986187;28;8803;-43
2021/05/13 04:08:25;;;;;;;;;2.00;2.00;;;;;20.54;28.68;99091.25;4977461;28;8811;-43
2021/05/13 04:10:51;;;;;;;;;1.00;1.00;;;;;20.48;28.75;99077.00;4977765;28;8802;-43
2021/05/13 04:13:17;;;;;;;;;1.00;1.00;;;;;20.51;28.72;99087.28;4976287;28;8767;-43
2021/05/13 04:15:46;;;;;;;;;1.75;1.75;;;;;20.50;28.91;99087.63;4977327;28;8829;-42
2021/05/13 04:18:11;;;;;;;;;1.00;1.00;;;;;20.48;28.81;99084.44;4984721;28;8949;-43
2021/05/13 04:20:37;;;;;;;;;1.00;1.00;;;;;20.47;28.94;99075.41;4996598;28;8919;-43
2021/05/13 04:23:02;;;;;;;;;1.00;1.00;;;;;20.46;28.76;99084.78;4996637;28;8919;-42
2021/05/13 04:25:28;;;;;;;;;2.00;2.00;;;;;20.45;28.71;99083.16;5003338;28;8825;-43
2021/05/13 04:27:53;;;;;;;;;1.00;1.00;;;;;20.45;28.79;99079.66;4982357;28;8791;-43
2021/05/13 04:30:19;;;;;;;;;2.00;2.00;;;;;20.71;28.84;99082.75;4986432;28;8778;-43
2021/05/13 04:32:44;;;;;;;;;2.00;2.00;;;;;20.76;28.91;99073.50;4995798;28;9532;-43
2021/05/13 04:35:11;;;;;;;;;1.50;1.50;;;;;20.55;28.76;99079.94;4993625;28;8792;-42
2021/05/13 04:37:37;;;;;;;;;1.80;1.80;;;;;20.46;28.87;99081.25;4992370;28;8804;-43
2021/05/13 04:40:04;;;;;;;;;1.00;1.00;;;;;20.41;28.97;99076.81;4981704;28;8860;-43
2021/05/13 04:42:29;;;;;;;;;1.00;1.00;;;;;20.37;29.06;99070.44;4974483;28;8802;-43
2021/05/13 04:44:56;;;;;;;;;1.00;1.00;;;;;20.40;28.82;99086.16;4974075;28;8793;-43
2021/05/13 04:47:34;;;;;;;;;1.00;1.00;;;;;20.39;28.81;99085.38;4975066;28;8847;-44
2021/05/13 04:50:01;;;;;;;;;2.00;2.00;;;;;20.37;29.09;99084.13;4974996;28;8834;-42
2021/05/13 04:52:27;;;;;;;;;1.80;1.80;;;;;20.33;28.96;99072.25;4991928;28;8791;-43
2021/05/13 04:54:56;;;;;;;;;1.00;1.00;;;;;20.35;29.06;99078.19;4995446;28;8820;-43
2021/05/13 04:57:22;;;;;;;;;1.40;1.40;;;;;20.34;29.05;99077.38;4998521;28;8799;-43
2021/05/13 04:59:48;;;;;;;;;1.20;1.20;;;;;20.33;28.92;99078.53;4988660;28;8807;-43
2021/05/13 05:02:14;;;;;;;;;1.00;1.00;;;;;20.44;29.14;99081.59;4976005;28;8813;-42
2021/05/13 05:04:39;;;;;;;;;1.75;1.75;;;;;20.67;28.86;99076.41;4994223;28;8820;-42
2021/05/13 05:07:05;;;;;;;;;2.00;2.00;;;;;20.52;28.92;99085.31;4980973;28;12305;-43
2021/05/13 05:09:30;;;;;;;;;2.00;2.00;;;;;20.39;29.19;99087.31;4973604;28;11619;-43
2021/05/13 05:11:55;;;;;;;;;1.25;1.25;;;;;20.33;29.14;99081.25;4979930;28;8788;-44
2021/05/13 05:14:21;;;;;;;;;1.00;1.00;;;;;20.28;29.13;99086.19;4992840;28;8788;-43
2021/05/13 05:16:46;;;;;;;;;1.00;1.00;;;;;20.29;29.01;99094.06;4995605;28;8926;-43
2021/05/13 05:19:11;;;;;;;;;2.00;2.00;;;;;20.28;29.07;99092.47;4993519;28;8780;-43
2021/05/13 05:21:37;;;;;;;;;1.00;1.00;;;;;20.28;29.04;99092.47;4996465;28;8943;-43
2021/05/13 05:24:02;;;;;;;;;1.75;1.75;;;;;20.27;29.21;99099.09;4994374;28;8792;-43
2021/05/13 05:26:28;;;;;;;;;1.75;1.75;;;;;20.26;29.03;99094.75;4992742;28;8836;-43
2021/05/13 05:28:53;;;;;;;;;1.50;1.50;;;;;20.25;29.09;99093.16;4994871;28;8827;-43
2021/05/13 05:31:18;;;;;;;;;2.00;2.00;;;;;20.24;29.10;99092.38;4993937;28;8808;-42
2021/05/13 05:33:44;;;;;;;;;1.25;1.25;;;;;20.24;29.11;99094.31;4995036;28;8978;-43
2021/05/13 05:36:09;;;;;;;;;1.00;1.00;;;;;20.50;29.08;99090.34;4987660;28;8795;-42
2021/05/13 05:38:34;;;;;;;;;1.00;1.00;;;;;20.58;29.14;99092.16;4977863;28;8854;-43
2021/05/13 05:41:00;;;;;;;;;1.00;1.00;;;;;20.37;29.19;99089.59;4994089;28;8811;-43
2021/05/13 05:43:25;;;;;;;;;1.50;1.50;;;;;20.24;29.14;99081.44;4992347;28;8773;-43
2021/05/13 05:45:50;;;;;;;;;1.00;1.00;;;;;20.26;29.35;99085.75;4995275;28;9540;-43
2021/05/13 05:48:16;;;;;;;;;1.25;1.25;;;;;20.23;29.36;99084.50;4994865;28;8788;-43
2021/05/13 05:50:43;;;;;;;;;2.00;2.00;;;;;20.21;29.25;99084.03;4991356;28;8831;-42
2021/05/13 05:53:10;;;;;;;;;2.20;2.20;;;;;20.20;29.40;99094.19;4995848;28;8795;-43
2021/05/13 05:55:36;;;;;;;;;1.00;1.00;;;;;20.20;29.31;99098.88;4973280;28;8835;-43
2021/05/13 05:58:02;;;;;;;;;1.00;1.00;;;;;20.19;29.41;99092.63;4974150;28;8858;-43
2021/05/13 06:00:28;;;;;;;;;1.40;1.40;;;;;20.20;29.22;99093.41;4980933;28;8831;-43
2021/05/13 06:02:54;;;;;;;;;1.00;1.00;;;;;20.19;29.41;99089.06;4989936;28;8791;-43
2021/05/13 06:05:19;;;;;;;;;1.25;1.25;;;;;20.18;29.44;99084.75;4976338;28;8890;-43
2021/05/13 06:07:45;;;;;;;;;1.00;1.00;;;;;20.18;29.42;99087.50;4993110;28;8818;-43
2021/05/13 06:10:13;;;;;;;;;1.00;1.00;;;;;20.50;29.28;99079.41;4978689;28;8965;-42
2021/05/13 06:12:39;;;;;;;;;2.00;2.00;;;;;20.38;29.25;99083.75;4980968;28;8807;-43
2021/05/13 06:15:07;;;;;;;;;1.60;1.60;;;;;20.15;29.40;99069.00;4996272;28;8753;-43
2021/05/13 06:17:33;;;;;;;;;1.00;1.00;;;;;20.19;29.38;99078.94;4989512;28;8851;-42
2021/05/13 06:20:01;;;;;;;;;1.00;1.00;;;;;20.16;29.42;99078.81;4995939;28;8803;-42
2021/05/13 06:22:30;;;;;;;;;2.00;2.00;;;;;20.15;29.48;99086.22;4993852;28;8824;-42
2021/05/13 06:24:56;;;;;;;;;1.00;1.00;;;;;20.13;29.37;99085.78;4992735;28;8792;-42
2021/05/13 06:27:22;;;;;;;;;1.00;1.00;;;;;20.13;29.29;99079.50;4995670;28;8806;-42
2021/05/13 06:29:48;;;;;;;;;2.00;2.00;;;;;20.12;29.41;99080.63;4995329;28;8947;-43
2021/05/13 06:32:14;;;;;;;;;1.00;1.00;;;;;20.08;29.39;99087.97;4998155;28;10292;-42
2021/05/13 06:34:39;;;;;;;;;1.00;1.00;;;;;20.11;29.26;99092.75;4977719;28;9555;-43
2021/05/13 06:37:05;;;;;;;;;1.00;1.00;;;;;20.10;29.48;99091.94;4977504;28;9512;-43
2021/05/13 06:39:33;;;;;;;;;1.00;1.00;;;;;19.96;29.56;99064.13;4980681;28;12283;-43
2021/05/13 06:41:59;;;;;;;;;1.80;1.80;;;;;20.32;29.66;99087.13;4975838;28;8809;-43
2021/05/13 06:44:25;;;;;;;;;2.80;2.80;;;;;20.43;29.26;99094.47;5000625;28;9018;-43
2021/05/13 06:46:51;;;;;;;;;1.00;1.00;;;;;20.22;29.47;99091.13;4998152;28;8784;-43
2021/05/13 06:49:16;;;;;;;;;1.00;1.00;;;;;20.13;29.67;99085.78;4982620;28;8807;-42
2021/05/13 06:51:41;;;;;;;;;2.00;2.00;;;;;20.08;29.68;99088.75;4975570;28;8805;-43
2021/05/13 06:54:07;;;;;;;;;2.00;2.00;;;;;20.05;29.63;99090.25;4979171;28;8838;-43
2021/05/13 06:56:32;;;;;;;;;2.00;2.00;;;;;20.06;29.64;99096.50;4973097;28;8837;-43
2021/05/13 06:58:58;;;;;;;;;2.00;2.00;;;;;20.05;29.57;99089.44;4996713;28;9328;-42
2021/05/13 07:01:24;;;;;;;;;1.20;1.20;;;;;20.04;29.55;99087.84;4996624;28;9573;-43
2021/05/13 07:03:49;;;;;;;;;1.50;1.50;;;;;20.04;29.63;99085.13;4992626;28;8804;-43
2021/05/13 07:06:15;;;;;;;;;2.00;2.00;;;;;20.03;29.72;99091.72;4998342;28;8864;-43
2021/05/13 07:08:40;;;;;;;;;1.00;1.00;;;;;20.02;29.66;99096.41;4994295;28;8915;-43
2021/05/13 07:11:05;;;;;;;;;2.00;2.00;;;;;20.02;29.79;99099.13;4996919;28;11525;-43
2021/05/13 07:13:30;;;;;;;;;2.25;2.00;;;;;20.01;29.71;99094.78;4995578;28;8820;-43
2021/05/13 07:15:56;;;;;;;;;1.25;1.25;;;;;20.17;29.78;99070.25;4983326;28;8837;-43
2021/05/13 07:18:22;;;;;;;;;1.00;1.00;;;;;20.26;29.67;99089.28;4984658;28;8854;-43
2021/05/13 07:20:47;;;;;;;;;1.00;1.00;;;;;20.10;29.69;99091.94;4994715;28;8809;-42
2021/05/13 07:23:13;;;;;;;;;2.00;2.00;;;;;20.01;29.80;99092.06;4977350;28;8842;-43
2021/05/13 07:25:40;;;;;;;;;2.00;2.00;;;;;20.01;29.88;99094.78;4976559;28;8813;-43
2021/05/13 07:28:06;;;;;;;;;1.00;1.00;;;;;19.99;29.84;99091.59;4974837;28;8829;-43
2021/05/13 07:30:32;;;;;;;;;2.00;2.00;;;;;19.98;29.87;99090.03;4987948;28;8914;-43
2021/05/13 07:32:58;;;;;;;;;1.00;1.00;;;;;19.98;29.82;99095.50;4988581;28;8954;-43
2021/05/13 07:35:24;;;;;;;;;1.20;1.20;;;;;19.98;29.88;99095.50;4976112;28;11499;-43
2021/05/13 07:37:49;;;;;;;;;1.75;1.75;;;;;19.97;29.74;99102.13;4979754;28;8807;-43
2021/05/13 07:40:18;;;;;;;;;1.50;1.50;;;;;19.96;29.85;99091.50;4977161;28;12342;-43
2021/05/13 07:42:44;;;;;;;;;1.00;1.00;;;;;19.95;29.81;99090.72;4972059;28;8834;-42
2021/05/13 07:45:11;;;;;;;;;1.00;1.00;;;;;19.91;29.68;99086.25;4978750;28;8795;-43
2021/05/13 07:47:38;;;;;;;;;2.00;2.00;;;;;20.14;30.13;99086.56;4976686;28;8842;-42
2021/05/13 07:50:08;;;;;;;;;2.00;2.00;;;;;20.30;29.83;99086.63;4976859;28;8825;-43
2021/05/13 07:52:34;;;;;;;;;2.00;1.60;;;;;20.11;29.93;99081.78;4990579;28;8808;-43
2021/05/13 07:55:00;;;;;;;;;2.00;2.00;;;;;20.00;30.11;99078.75;4996952;28;8784;-43
2021/05/13 07:57:25;;;;;;;;;1.80;1.80;;;;;19.96;30.14;99081.34;4995943;28;8905;-42
2021/05/13 07:59:51;;;;;;;;;2.00;2.00;;;;;19.94;30.04;99094.56;4998418;28;8788;-43
2021/05/13 08:02:17;;;;;;;;;2.00;2.00;;;;;19.93;29.96;99082.06;4996652;28;8832;-43
2021/05/13 08:04:42;;;;;;;;;1.25;1.25;;;;;19.94;29.86;99085.56;4995951;28;8832;-42
2021/05/13 08:07:07;;;;;;;;;1.50;1.50;;;;;19.92;29.90;99085.91;4990048;28;8951;-43
2021/05/13 08:09:33;;;;;;;;;2.75;2.75;;;;;19.91;30.08;99086.25;4998449;28;9574;-42
2021/05/13 08:11:58;;;;;;;;;2.00;2.00;;;;;19.92;29.90;99087.88;4992346;28;8779;-43
2021/05/13 08:14:23;;;;;;;;;1.25;1.25;;;;;19.91;30.04;99083.53;4975452;28;11409;-43
2021/05/13 08:16:49;;;;;;;;;1.25;1.25;;;;;19.91;29.95;99089.00;4995601;28;8909;-43
2021/05/13 08:19:14;;;;;;;;;2.00;2.00;;;;;19.90;30.09;99093.69;4980678;28;8802;-43
2021/05/13 08:21:40;;;;;;;;;2.00;2.00;;;;;20.18;30.08;99088.28;4973943;28;8807;-43
2021/05/13 08:24:05;;;;;;;;;2.00;2.00;;;;;20.17;30.26;99088.63;4979907;28;8818;-42
2021/05/13 08:26:31;;;;;;;;;2.00;2.00;;;;;19.97;30.03;99090.38;4994249;28;8820;-43
2021/05/13 08:28:56;;;;;;;;;2.00;2.00;;;;;19.93;30.21;99087.53;4994170;28;9682;-43
2021/05/13 08:31:22;;;;;;;;;2.00;2.00;;;;;19.90;30.12;99085.47;4998068;28;8815;-43
2021/05/13 08:33:48;;;;;;;;;2.00;2.00;;;;;19.89;30.07;99088.53;4982550;28;11264;-42
2021/05/13 08:36:13;;;;;;;;;2.00;2.00;;;;;19.88;30.24;99090.50;4983181;28;8784;-43
2021/05/13 08:38:38;;;;;;;;;1.50;1.50;;;;;19.87;30.18;99091.63;4992959;28;8800;-42
2021/05/13 08:41:05;;;;;;;;;1.25;1.25;;;;;19.88;30.17;99085.03;4976762;28;8822;-42
2021/05/13 08:43:31;;;;;;;;;1.00;1.00;;;;;19.88;30.21;99087.75;4971274;28;8775;-42
2021/05/13 08:45:58;;;;;;;;;2.00;2.00;;;;;19.87;30.09;99088.88;4975899;28;8873;-42
2021/05/13 08:48:30;;;;;;;;;2.00;2.00;;;;;19.86;30.25;99082.63;4973414;28;8771;-42
2021/05/13 08:50:57;;;;;;;;;2.00;2.00;;;;;19.86;30.29;99087.31;4972330;28;8798;-42
2021/05/13 08:53:22;;;;;;;;;2.00;2.00;;;;;19.99;30.80;99088.88;4972923;28;8802;-43
2021/05/13 08:55:48;;;;;;;;;2.00;2.00;;;;;20.22;30.06;99085.63;4977865;28;8826;-43
2021/05/13 08:58:13;;;;;;;;;2.00;2.00;;;;;20.02;30.31;99085.44;4987303;28;8772;-43
2021/05/13 09:00:39;;;;;;;;;1.00;1.00;;;;;19.91;30.28;99095.28;4996333;28;8965;-43
2021/05/13 09:03:05;;;;;;;;;2.00;2.00;;;;;19.86;30.50;99088.09;4992280;28;8793;-43
2021/05/13 09:05:31;;;;;;;;;2.25;2.25;;;;;19.85;30.38;99082.97;4997449;28;9013;-43
2021/05/13 09:07:56;;;;;;;;;1.80;1.80;;;;;19.85;30.44;99091.19;4997894;28;9607;-43
2021/05/13 09:10:25;;;;;;;;;2.00;2.00;;;;;19.82;30.35;99091.84;4993782;28;8878;-43
2021/05/13 09:12:52;;;;;;;;;2.00;2.00;;;;;19.83;30.26;99088.78;4993155;28;8792;-42
2021/05/13 09:15:23;;;;;;;;;2.00;2.00;;;;;19.82;30.36;99086.38;4992611;28;8891;-42
2021/05/13 09:18:07;;;;;;;;;1.80;1.80;;;;;19.81;30.33;99080.13;4995960;28;8788;-43
2021/05/13 09:20:41;;;;;;;;;2.00;2.00;;;;;19.81;30.28;99084.81;4994627;28;8846;-42
2021/05/13 09:23:09;;;;;;;;;2.00;2.00;;;;;19.81;30.29;99087.53;4993438;28;8850;-42
2021/05/13 09:25:35;;;;;;;;;2.20;2.20;;;;;19.80;30.17;99083.19;4995943;28;8828;-43
2021/05/13 09:28:00;;;;;;;;;2.00;2.00;;;;;20.13;30.44;99079.50;4978534;28;8811;-42
2021/05/13 09:30:29;;;;;;;;;2.00;2.00;;;;;20.05;30.69;99081.22;4972245;28;8830;-42
2021/05/13 09:33:00;;;;;;;;;3.00;3.00;;;;;19.89;30.35;99081.13;4979517;28;10003;-42
2021/05/13 09:35:34;;;;;;;;;2.00;2.00;;;;;19.83;30.62;99082.50;4978631;28;8783;-42
2021/05/13 09:38:07;;;;;;;;;2.00;2.00;;;;;19.80;30.64;99074.97;4974626;28;8815;-42
2021/05/13 09:40:40;;;;;;;;;2.00;2.00;;;;;19.79;30.58;99076.16;4992869;28;8776;-42
2021/05/13 09:43:16;;;;;;;;;2.20;2.20;;;;;19.78;30.40;99071.81;4979952;28;9638;-43
2021/05/13 09:45:47;;;;;;;;;2.00;2.00;;;;;19.76;30.35;99074.09;4984906;28;8835;-43
2021/05/13 09:48:34;;;;;;;;;3.00;2.20;;;;;19.76;30.46;99072.13;4997357;28;8788;-43
2021/05/13 09:51:22;;;;;;;;;2.20;2.20;;;;;19.76;30.52;99072.13;4993893;28;8921;-43
2021/05/13 09:54:03;;;;;;;;;3.00;2.00;;;;;19.71;30.38;99061.41;4993675;28;8837;-42
2021/05/13 09:56:29;;;;;;;;;2.00;2.00;;;;;19.76;30.39;99071.34;4973820;28;8818;-42
2021/05/13 09:58:55;;;;;;;;;3.00;3.00;;;;;19.78;30.72;99061.66;4992424;28;9600;-43
2021/05/13 10:01:21;;;;;;;;;2.80;2.80;;;;;20.09;30.72;99065.72;4996220;28;8812;-42
2021/05/13 10:03:48;;;;;;;;;3.00;3.00;;;;;19.95;30.70;99052.38;5001011;28;8800;-43
2021/05/13 10:06:13;;;;;;;;;2.40;2.40;;;;;19.70;30.75;99039.84;5000899;28;8796;-43
2021/05/13 10:08:42;;;;;;;;;2.00;2.00;;;;;19.78;30.77;99053.44;4998139;28;8793;-43
2021/05/13 10:11:08;;;;;;;;;2.20;2.20;;;;;19.76;30.81;99060.41;4998288;28;10812;-43
2021/05/13 10:13:34;;;;;;;;;3.00;3.00;;;;;19.74;30.91;99059.94;4998519;28;8777;-42
2021/05/13 10:16:01;;;;;;;;;2.00;2.00;;;;;19.73;30.86;99056.38;4998963;28;8922;-43
2021/05/13 10:18:51;;;;;;;;;2.00;2.00;;;;;19.73;30.68;99058.31;4996655;28;8780;-43
2021/05/13 10:21:25;;;;;;;;;2.00;2.00;;;;;19.72;30.69;99054.78;4994711;28;8815;-42
2021/05/13 10:23:53;;;;;;;;;2.00;2.00;;;;;19.71;30.70;99050.44;4996794;28;8905;-43
2021/05/13 10:26:35;;;;;;;;;2.00;2.00;;;;;19.71;30.76;99044.19;4996198;28;8867;-42
2021/05/13 10:29:19;;;;;;;;;3.00;3.00;;;;;19.71;30.67;99052.41;4998503;28;8897;-42
2021/05/13 10:31:45;;;;;;;;;2.00;2.00;;;;;19.73;30.81;99052.84;5002621;28;8827;-42
2021/05/13 10:34:11;;;;;;;;;2.00;2.00;;;;;20.02;30.71;99038.13;5003202;28;8826;-43
2021/05/13 10:36:36;;;;;;;;;3.00;3.00;;;;;19.94;30.96;99041.78;4998899;28;8792;-43
2021/05/13 10:39:10;;;;;;;;;4.00;3.00;;;;;19.80;30.69;99044.88;5003906;28;8819;-42
2021/05/13 10:41:43;;;;;;;;;3.00;3.00;;;;;19.73;31.14;99047.38;4997435;28;8807;-42
2021/05/13 10:44:11;;;;;;;;;3.20;3.20;;;;;19.71;30.98;99044.19;5001752;28;8788;-42
2021/05/13 10:46:54;;;;;;;;;3.00;3.00;;;;;19.69;30.91;99047.25;4997153;28;8942;-42
2021/05/13 10:49:23;;;;;;;;;2.00;2.00;;;;;19.67;30.88;99041.34;4982101;28;8803;-42
2021/05/13 10:51:50;;;;;;;;;3.40;3.00;;;;;19.68;30.81;99041.00;4991145;28;8777;-43
2021/05/13 10:54:28;;;;;;;;;2.00;2.00;;;;;19.68;30.72;99037.44;4989799;28;8779;-43
2021/05/13 10:57:14;;;;;;;;;3.00;3.00;;;;;19.66;30.94;99040.56;4972380;28;8868;-43
2021/05/13 11:00:00;;;;;;;;;3.00;3.00;;;;;19.81;31.20;99036.34;4970991;28;8803;-43
2021/05/13 11:02:44;;;;;;;;;2.60;2.60;;;;;19.89;31.80;99034.59;4977007;28;8818;-43
2021/05/13 11:05:28;;;;;;;;;3.00;3.00;;;;;20.13;33.88;99036.50;4977887;28;8900;-45
2021/05/13 11:07:54;;;;;;;;;3.00;3.00;;;;;20.33;34.23;99028.44;4995548;28;9736;-44
2021/05/13 11:10:20;;;;;;;;;3.60;3.00;;;;;20.20;32.89;99023.00;4992265;28;8776;-42
2021/05/13 11:12:45;;;;;;;;;3.00;3.00;;;;;20.15;32.54;99034.19;4981271;28;8823;-46
2021/05/13 11:15:36;;;;;;;;;3.00;3.00;;;;;20.18;34.24;99021.78;4975424;28;8819;-47
2021/05/13 11:18:06;;;;;;;;;3.00;3.00;;;;;20.11;33.96;99021.56;4979083;28;11497;-48
2021/05/13 11:20:46;;;;;;;;;3.00;3.00;;;;;20.02;34.39;99024.44;4996300;28;8796;-45
2021/05/13 11:23:14;;;;;;;;;4.20;4.20;;;;;20.00;34.04;99024.00;4995252;28;9854;-46
2021/05/13 11:26:03;;;;;;;;;3.20;3.20;;;;;20.04;33.61;99022.94;4996245;28;8997;-47
2021/05/13 11:28:38;;;;;;;;;5.00;5.00;;;;;20.04;33.42;99011.19;4990520;28;8810;-47
2021/05/13 11:31:06;;;;;;;;;3.00;3.00;;;;;20.05;33.31;99008.13;4992723;28;8773;-47
2021/05/13 11:33:44;;;;;;;;;2.60;2.60;;;;;20.07;33.25;99006.97;4994948;28;8816;-47
2021/05/13 11:36:15;;;;;;;;;4.00;4.00;;;;;20.15;33.02;99006.03;4995438;28;8854;-42
2021/05/13 11:38:41;;;;;;;;;4.00;4.00;;;;;20.52;33.99;99011.34;4993787;28;9519;-47
2021/05/13 11:41:07;;;;;;;;;3.40;3.40;;;;;20.69;33.78;98991.88;4991723;28;8828;-45
2021/05/13 11:43:39;;;;;;;;;4.60;4.00;;;;;20.61;33.81;99001.03;4970826;28;8859;-45
2021/05/13 11:46:07;;;;;;;;;3.40;3.40;;;;;20.42;33.96;98977.03;4971950;28;8842;-45
2021/05/13 11:48:39;;;;;;;;;4.00;4.00;;;;;20.61;36.39;99001.03;4977137;28;8833;-47
2021/05/13 11:51:09;;;;;;;;;4.00;4.00;;;;;20.63;34.32;98998.75;4988497;28;9080;-48